Terminal Aerodrome Forecast
Issued by NWS

Home | Current Version | Previous Version | Graphics & Text | Print | Product List | Glossary On
Versions: 1 2 3 4 5 6 7 8 9 10 11 12 13 14 15 16 17 18 19 20 21
000
FTUS43 KGRB 081100 AAB
TAFAUW
TAF AMD
KAUW 081114Z 0811/0906 30005KT P6SM FEW010 SCT120
     FM081600 30011KT P6SM VCSH SCT020 BKN060
     FM090100 30005KT P6SM SCT050 SCT100=

USA.gov is the U.S. government's official web portal to all federal, state and local government web resources and services.